createdAt,value
2022-11-10T00:01:11.327Z,18.55
2022-11-10T00:03:39.549Z,18.56
2022-11-10T00:06:08.422Z,18.49
2022-11-10T00:08:36.211Z,18.46
2022-11-10T00:11:04.883Z,18.44
2022-11-10T00:13:35.167Z,18.47
2022-11-10T00:16:04.626Z,18.44
2022-11-10T00:18:33.082Z,18.50
2022-11-10T00:21:03.744Z,18.48
2022-11-10T00:23:30.822Z,18.56
2022-11-10T00:25:57.903Z,18.58
2022-11-10T00:28:25.222Z,18.58
2022-11-10T00:30:52.287Z,18.59
2022-11-10T00:33:19.719Z,18.62
2022-11-10T00:35:48.425Z,18.62
2022-11-10T00:38:15.506Z,18.64
2022-11-10T00:40:42.543Z,18.66
2022-11-10T00:43:09.624Z,18.70
2022-11-10T00:45:36.662Z,18.70
2022-11-10T00:48:04.123Z,18.73
2022-11-10T00:50:31.163Z,18.73
2022-11-10T00:52:59.963Z,18.73
2022-11-10T00:55:27.123Z,18.72
2022-11-10T00:57:54.202Z,18.73
2022-11-10T01:00:21.463Z,18.73
2022-11-10T01:02:48.520Z,18.72
2022-11-10T01:05:15.581Z,18.72
2022-11-10T01:07:42.872Z,18.72
2022-11-10T01:10:11.464Z,18.70
2022-11-10T01:12:38.610Z,18.66
2022-11-10T01:15:06.922Z,18.65
2022-11-10T01:17:33.984Z,18.64
2022-11-10T01:20:01.043Z,18.71
2022-11-10T01:22:28.263Z,18.68
2022-11-10T01:24:55.342Z,18.66
2022-11-10T01:27:25.824Z,18.63
2022-11-10T01:29:52.942Z,18.64
2022-11-10T01:32:20.041Z,18.66
2022-11-10T01:34:47.124Z,18.64
2022-11-10T01:37:14.582Z,18.63
2022-11-10T01:39:41.583Z,18.60
2022-11-10T01:42:08.661Z,18.57
2022-11-10T01:44:38.483Z,18.53
2022-11-10T01:47:05.662Z,18.51
2022-11-10T01:49:34.522Z,18.49
2022-11-10T01:52:07.997Z,18.56
2022-11-10T01:54:46.666Z,18.52
2022-11-10T01:57:16.562Z,18.52
2022-11-10T01:59:47.622Z,18.50
2022-11-10T02:02:22.965Z,18.49
2022-11-10T02:04:52.229Z,18.49
2022-11-10T02:07:21.241Z,18.50
2022-11-10T02:09:48.342Z,18.49
2022-11-10T02:12:16.210Z,18.53
2022-11-10T02:14:44.682Z,18.49
2022-11-10T02:17:13.922Z,18.97
2022-11-10T02:19:42.283Z,19.07
2022-11-10T02:22:10.802Z,19.17
2022-11-10T02:24:37.941Z,19.20
2022-11-10T02:27:04.962Z,19.33
2022-11-10T02:29:32.041Z,19.36
2022-11-10T02:31:59.124Z,19.35
2022-11-10T02:34:26.322Z,19.27
2022-11-10T02:36:53.401Z,19.49
2022-11-10T02:39:21.922Z,19.60
2022-11-10T02:41:49.021Z,19.63
2022-11-10T02:44:16.120Z,19.70
2022-11-10T02:46:43.262Z,19.89
2022-11-10T02:49:10.347Z,19.91
2022-11-10T02:51:37.441Z,20.01
2022-11-10T02:54:04.783Z,20.03
2022-11-10T02:56:33.220Z,20.12
2022-11-10T02:59:00.230Z,20.12
2022-11-10T03:01:27.507Z,20.10
2022-11-10T03:03:54.680Z,20.13
2022-11-10T03:06:21.660Z,20.16
2022-11-10T03:08:48.700Z,20.17
2022-11-10T03:11:15.723Z,20.23
2022-11-10T03:14:00.272Z,20.26
2022-11-10T03:16:28.820Z,20.27
2022-11-10T03:18:56.000Z,20.29
2022-11-10T03:21:23.040Z,20.30
2022-11-10T03:23:50.071Z,20.29
2022-11-10T03:26:17.221Z,20.26
2022-11-10T03:28:45.680Z,20.26
2022-11-10T03:31:12.700Z,20.23
2022-11-10T03:33:39.816Z,20.19
2022-11-10T03:36:07.260Z,20.21
2022-11-10T03:38:34.286Z,20.17
2022-11-10T03:41:18.767Z,20.18
2022-11-10T03:43:48.800Z,20.23
2022-11-10T03:46:15.961Z,20.19
2022-11-10T03:48:44.560Z,20.16
2022-11-10T03:51:14.741Z,20.13
2022-11-10T03:53:41.781Z,20.17
2022-11-10T03:56:08.840Z,20.21
2022-11-10T03:58:35.861Z,20.18
2022-11-10T04:01:04.402Z,20.08
2022-11-10T04:03:31.480Z,20.05
2022-11-10T04:05:58.521Z,20.03
2022-11-10T04:08:25.600Z,20.10
2022-11-10T04:10:52.644Z,20.10
2022-11-10T04:13:19.961Z,20.11
2022-11-10T04:15:47.384Z,20.14
2022-11-10T04:18:16.582Z,20.14
2022-11-10T04:20:44.481Z,20.14
2022-11-10T04:23:11.823Z,20.15
2022-11-10T04:25:38.881Z,20.10
2022-11-10T04:28:05.983Z,20.03
2022-11-10T04:30:33.002Z,20.02
2022-11-10T04:33:00.001Z,20.03
2022-11-10T04:35:28.542Z,20.02
2022-11-10T04:37:55.621Z,19.97
2022-11-10T04:40:22.721Z,19.96
2022-11-10T04:42:49.761Z,19.94
2022-11-10T04:45:16.860Z,19.88
2022-11-10T04:47:43.901Z,19.85
2022-11-10T04:50:10.922Z,19.84
2022-11-10T04:52:39.402Z,19.82
2022-11-10T04:55:07.561Z,19.80
2022-11-10T04:57:34.622Z,19.76
2022-11-10T05:00:01.693Z,19.76
2022-11-10T05:02:28.740Z,19.74
2022-11-10T05:04:55.822Z,19.70
2022-11-10T05:07:22.882Z,19.67
2022-11-10T05:09:51.321Z,19.68
2022-11-10T05:12:22.190Z,19.65
2022-11-10T05:14:49.564Z,19.67
2022-11-10T05:17:16.601Z,19.62
2022-11-10T05:19:43.661Z,19.58
2022-11-10T05:22:10.663Z,19.51
2022-11-10T05:24:37.761Z,19.49
2022-11-10T05:27:06.782Z,19.46
2022-11-10T05:29:33.803Z,19.42
2022-11-10T05:32:01.545Z,19.40
2022-11-10T05:34:28.625Z,19.41
2022-11-10T05:36:55.661Z,19.42
2022-11-10T05:39:22.663Z,19.36
2022-11-10T05:41:49.683Z,19.41
2022-11-10T05:44:18.165Z,19.43
2022-11-10T05:46:45.282Z,19.47
2022-11-10T05:49:12.302Z,19.36
2022-11-10T05:51:39.401Z,19.31
2022-11-10T05:54:06.503Z,19.33
2022-11-10T05:56:33.568Z,19.28
2022-11-10T05:59:00.605Z,19.28
2022-11-10T06:01:29.102Z,19.20
2022-11-10T06:03:56.232Z,19.19
2022-11-10T06:06:23.343Z,19.18
2022-11-10T06:08:50.384Z,19.16
2022-11-10T06:11:17.441Z,19.18
2022-11-10T06:13:44.463Z,19.13
2022-11-10T06:16:11.460Z,19.08
2022-11-10T06:18:39.944Z,19.09
2022-11-10T06:21:07.039Z,19.07
2022-11-10T06:23:34.064Z,19.01
2022-11-10T06:26:01.162Z,19.04
2022-11-10T06:28:28.184Z,18.96
2022-11-10T06:30:57.945Z,18.98
2022-11-10T06:33:25.308Z,18.97
2022-11-10T06:35:53.962Z,18.87
2022-11-10T06:38:21.043Z,18.74
2022-11-10T06:40:48.066Z,18.70
2022-11-10T06:43:15.162Z,18.79
2022-11-10T06:45:42.222Z,18.93
2022-11-10T06:48:12.762Z,18.96
2022-11-10T06:50:39.881Z,18.99
2022-11-10T06:53:09.582Z,19.06
2022-11-10T06:55:37.222Z,19.12
2022-11-10T06:58:04.282Z,19.17
2022-11-10T07:00:31.438Z,19.20
2022-11-10T07:03:00.201Z,19.33
2022-11-10T07:05:27.261Z,19.92
2022-11-10T07:07:54.283Z,20.58
2022-11-10T07:10:22.843Z,21.29
2022-11-10T07:12:56.200Z,21.54
2022-11-10T07:15:23.283Z,21.62
2022-11-10T07:17:50.402Z,21.56
2022-11-10T07:20:17.503Z,21.43
2022-11-10T07:22:44.662Z,21.62
2022-11-10T07:25:11.787Z,21.75
2022-11-10T07:27:40.241Z,21.83
2022-11-10T07:30:08.624Z,21.79
2022-11-10T07:32:35.643Z,21.81
2022-11-10T07:35:02.722Z,21.89
2022-11-10T07:37:29.809Z,22.10
2022-11-10T07:39:56.864Z,22.21
2022-11-10T07:42:23.961Z,22.29
2022-11-10T07:44:52.445Z,22.25
2022-11-10T07:47:19.526Z,21.87
2022-11-10T07:49:46.582Z,22.13
2022-11-10T07:52:13.661Z,22.21
2022-11-10T07:54:40.721Z,22.45
2022-11-10T07:57:07.742Z,22.62
2022-11-10T07:59:34.724Z,22.72
2022-11-10T08:02:03.292Z,22.65
2022-11-10T08:04:30.422Z,22.94
2022-11-10T08:06:57.508Z,23.28
2022-11-10T08:09:24.771Z,23.49
2022-11-10T08:11:51.762Z,23.66
2022-11-10T08:14:18.862Z,23.80
2022-11-10T08:16:46.602Z,23.97
2022-11-10T08:19:15.068Z,24.08
2022-11-10T08:21:42.101Z,24.14
2022-11-10T08:24:09.702Z,24.17
2022-11-10T08:26:36.843Z,24.23
2022-11-10T08:29:04.005Z,24.22
2022-11-10T08:31:33.062Z,24.23
2022-11-10T08:34:00.784Z,24.19
2022-11-10T08:36:29.224Z,24.29
2022-11-10T08:38:56.242Z,24.45
2022-11-10T08:41:23.381Z,24.70
2022-11-10T08:43:50.422Z,24.44
2022-11-10T08:46:17.509Z,24.41
2022-11-10T08:48:44.604Z,24.61
2022-11-10T08:51:11.863Z,24.60
2022-11-10T08:53:40.484Z,24.58
2022-11-10T08:56:08.264Z,24.49
2022-11-10T08:58:40.923Z,23.91
2022-11-10T09:01:14.584Z,23.94
2022-11-10T09:03:42.004Z,23.96
2022-11-10T09:06:09.131Z,23.98
2022-11-10T09:08:36.214Z,23.98
2022-11-10T09:11:04.794Z,24.02
2022-11-10T09:13:32.334Z,24.31
2022-11-10T09:16:02.195Z,24.32
2022-11-10T09:18:29.628Z,23.77
2022-11-10T09:20:57.359Z,23.79
2022-11-10T09:23:24.812Z,23.74
2022-11-10T09:25:54.498Z,23.75
2022-11-10T09:28:23.975Z,24.09
2022-11-10T09:30:52.564Z,23.92
2022-11-10T09:33:21.013Z,23.95
2022-11-10T09:35:48.560Z,23.69
2022-11-10T09:38:15.598Z,23.59
2022-11-10T09:40:56.059Z,23.85
2022-11-10T09:43:32.771Z,23.50
2022-11-10T09:46:09.714Z,22.38
2022-11-10T09:48:44.390Z,21.55
2022-11-10T09:51:19.659Z,21.35
2022-11-10T09:53:52.508Z,22.05
2022-11-10T09:56:35.164Z,22.69
2022-11-10T09:59:26.580Z,22.95
2022-11-10T10:02:03.240Z,23.40
2022-11-10T10:04:52.350Z,23.17
2022-11-10T10:07:26.388Z,23.75
2022-11-10T10:10:02.700Z,23.84
2022-11-10T10:12:49.104Z,23.04
2022-11-10T10:15:27.380Z,23.24
2022-11-10T10:18:10.340Z,22.86
2022-11-10T10:20:50.282Z,22.83
2022-11-10T10:23:40.693Z,22.74
2022-11-10T10:26:18.721Z,22.58
2022-11-10T10:28:48.821Z,22.56
2022-11-10T10:31:22.383Z,22.72
2022-11-10T10:33:49.981Z,22.98
2022-11-10T10:36:27.540Z,23.22
2022-11-10T10:39:00.502Z,23.25
2022-11-10T10:41:30.324Z,23.62
2022-11-10T10:44:00.133Z,23.82
2022-11-10T10:46:32.900Z,23.76
2022-11-10T10:49:27.975Z,23.80
2022-11-10T10:52:06.030Z,23.75
2022-11-10T10:54:35.385Z,23.23
2022-11-10T10:57:06.405Z,23.91
2022-11-10T10:59:34.723Z,24.03
2022-11-10T11:02:03.285Z,24.19
2022-11-10T11:04:33.983Z,24.26
2022-11-10T11:07:04.113Z,24.37
2022-11-10T11:09:40.568Z,24.31
2022-11-10T11:12:11.364Z,24.16
2022-11-10T11:14:43.245Z,24.15
2022-11-10T11:17:19.251Z,24.09
2022-11-10T11:19:47.445Z,23.92
2022-11-10T11:22:39.468Z,24.10
2022-11-10T11:25:18.603Z,23.94
2022-11-10T11:28:03.866Z,23.35
2022-11-10T11:30:47.984Z,23.20
2022-11-10T11:33:38.072Z,22.52
2022-11-10T11:36:24.365Z,22.65
2022-11-10T11:39:04.264Z,22.83
2022-11-10T11:41:44.284Z,22.73
2022-11-10T11:44:42.449Z,22.54
2022-11-10T11:47:30.708Z,22.19
2022-11-10T11:50:22.191Z,22.23
2022-11-10T11:53:00.347Z,22.46
2022-11-10T11:55:56.411Z,22.21
2022-11-10T11:58:35.523Z,22.38
2022-11-10T12:01:24.084Z,22.55
2022-11-10T12:04:22.884Z,22.24
2022-11-10T12:07:08.238Z,22.30
2022-11-10T12:09:44.864Z,22.21
2022-11-10T12:12:33.524Z,22.19
2022-11-10T12:15:22.863Z,21.76
2022-11-10T12:18:03.663Z,21.97
2022-11-10T12:20:47.023Z,22.18
2022-11-10T12:23:26.084Z,22.42
2022-11-10T12:26:08.185Z,21.91
2022-11-10T12:28:44.003Z,22.38
2022-11-10T12:31:18.346Z,22.37
2022-11-10T12:33:54.921Z,22.33
2022-11-10T12:36:24.707Z,22.51
2022-11-10T12:39:01.642Z,22.58
2022-11-10T12:41:35.987Z,21.53
2022-11-10T12:44:19.545Z,22.21
2022-11-10T12:46:54.323Z,21.66
2022-11-10T12:49:31.426Z,22.29
2022-11-10T12:52:08.362Z,22.47
2022-11-10T12:54:40.542Z,22.56
2022-11-10T12:57:16.465Z,21.24
2022-11-10T12:59:55.647Z,22.19
2022-11-10T13:02:29.184Z,21.44
2022-11-10T13:05:26.804Z,22.02
2022-11-10T13:10:35.864Z,22.46
2022-11-10T13:13:14.583Z,21.88
2022-11-10T13:15:50.482Z,21.88
2022-11-10T13:18:53.821Z,21.59
2022-11-10T13:22:08.663Z,21.66
2022-11-10T13:24:37.088Z,21.76
2022-11-10T13:27:12.028Z,21.65
2022-11-10T13:29:56.314Z,21.44
2022-11-10T13:32:27.745Z,21.44
2022-11-10T13:35:29.603Z,21.48
2022-11-10T13:37:57.910Z,21.20
2022-11-10T13:40:32.082Z,21.29
2022-11-10T13:43:27.688Z,21.07
2022-11-10T13:46:05.548Z,21.12
2022-11-10T13:48:49.323Z,21.29
2022-11-10T13:51:32.247Z,21.36
2022-11-10T13:54:17.284Z,21.32
2022-11-10T13:57:04.785Z,21.22
2022-11-10T13:59:46.142Z,21.17
2022-11-10T14:02:51.935Z,21.04
2022-11-10T14:06:00.826Z,21.08
2022-11-10T14:08:36.387Z,20.93
2022-11-10T14:11:11.525Z,21.07
2022-11-10T14:13:45.003Z,21.05
2022-11-10T14:16:19.023Z,21.15
2022-11-10T14:18:52.164Z,21.12
2022-11-10T14:21:29.387Z,21.14
2022-11-10T14:24:04.804Z,21.22
2022-11-10T14:26:37.868Z,21.05
2022-11-10T14:29:27.525Z,20.47
2022-11-10T14:31:57.555Z,20.35
2022-11-10T14:34:25.663Z,20.62
2022-11-10T14:36:54.462Z,20.67
2022-11-10T14:39:29.751Z,20.43
2022-11-10T14:42:00.772Z,20.64
2022-11-10T14:44:30.237Z,20.78
2022-11-10T14:47:22.774Z,20.90
2022-11-10T14:50:07.626Z,21.01
2022-11-10T14:52:40.263Z,20.76
2022-11-10T14:55:14.262Z,20.86
2022-11-10T14:57:41.823Z,21.02
2022-11-10T15:00:18.006Z,21.07
2022-11-10T15:02:46.965Z,21.05
2022-11-10T15:05:15.850Z,20.93
2022-11-10T15:07:45.126Z,20.92
2022-11-10T15:10:19.043Z,20.89
2022-11-10T15:12:59.389Z,20.97
2022-11-10T15:15:27.463Z,20.95
2022-11-10T15:17:56.343Z,20.99
2022-11-10T15:20:29.609Z,20.99
2022-11-10T15:22:59.942Z,21.22
2022-11-10T15:25:35.686Z,21.41
2022-11-10T15:28:14.542Z,21.22
2022-11-10T15:30:50.315Z,21.05
2022-11-10T15:33:27.515Z,21.06
2022-11-10T15:35:56.086Z,21.04
2022-11-10T15:38:30.630Z,20.96
2022-11-10T15:41:13.163Z,20.95
2022-11-10T15:43:40.563Z,20.82
2022-11-10T15:46:17.768Z,20.63
2022-11-10T15:48:50.602Z,20.73
2022-11-10T15:51:25.709Z,20.59
2022-11-10T15:53:54.402Z,20.61
2022-11-10T15:56:23.639Z,20.64
2022-11-10T15:58:52.483Z,20.63
2022-11-10T16:01:21.276Z,20.53
2022-11-10T16:03:50.123Z,20.52
2022-11-10T16:06:17.326Z,20.48
2022-11-10T16:08:44.384Z,20.51
2022-11-10T16:11:19.084Z,20.52
2022-11-10T16:13:48.206Z,20.51
2022-11-10T16:16:16.963Z,20.52
2022-11-10T16:18:44.167Z,20.42
2022-11-10T16:21:15.429Z,20.40
2022-11-10T16:23:43.537Z,20.33
2022-11-10T16:26:15.283Z,20.39
2022-11-10T16:28:43.106Z,20.29
2022-11-10T16:31:12.207Z,20.23
2022-11-10T16:33:39.983Z,20.20
2022-11-10T16:36:21.906Z,20.25
2022-11-10T16:38:48.973Z,20.12
2022-11-10T16:41:16.086Z,20.11
2022-11-10T16:43:43.204Z,20.87
2022-11-10T16:46:19.823Z,22.32
2022-11-10T16:48:48.893Z,22.87
2022-11-10T16:51:17.543Z,23.33
2022-11-10T16:53:45.024Z,23.65
2022-11-10T16:56:15.394Z,23.82
2022-11-10T16:58:42.895Z,24.01
2022-11-10T17:01:17.296Z,24.14
2022-11-10T17:03:49.305Z,23.48
2022-11-10T17:06:20.166Z,22.62
2022-11-10T17:08:49.565Z,22.06
2022-11-10T17:11:16.903Z,21.54
2022-11-10T17:13:44.044Z,21.13
2022-11-10T17:16:22.004Z,20.90
2022-11-10T17:18:50.925Z,20.70
2022-11-10T17:21:20.328Z,20.41
2022-11-10T17:23:47.415Z,20.33
2022-11-10T17:26:17.805Z,20.21
2022-11-10T17:28:45.245Z,20.13
2022-11-10T17:31:12.585Z,20.03
2022-11-10T17:33:39.904Z,19.97
2022-11-10T17:36:14.137Z,19.90
2022-11-10T17:38:43.486Z,19.84
2022-11-10T17:41:16.044Z,19.81
2022-11-10T17:43:45.774Z,19.81
2022-11-10T17:46:14.364Z,19.72
2022-11-10T17:48:41.805Z,19.71
2022-11-10T17:51:13.807Z,19.68
2022-11-10T17:53:43.284Z,19.75
2022-11-10T17:56:10.405Z,19.76
2022-11-10T17:58:37.483Z,19.84
2022-11-10T18:01:11.250Z,19.83
2022-11-10T18:03:38.847Z,19.85
2022-11-10T18:06:07.044Z,19.90
2022-11-10T18:08:34.187Z,19.86
2022-11-10T18:11:02.845Z,19.86
2022-11-10T18:13:29.845Z,19.84
2022-11-10T18:15:58.833Z,19.82
2022-11-10T18:18:25.944Z,19.82
2022-11-10T18:20:53.126Z,19.78
2022-11-10T18:23:20.542Z,19.71
2022-11-10T18:25:47.984Z,19.66
2022-11-10T18:28:16.467Z,19.62
2022-11-10T18:30:43.965Z,19.54
2022-11-10T18:33:12.646Z,19.47
2022-11-10T18:35:40.526Z,19.43
2022-11-10T18:38:09.144Z,19.44
2022-11-10T18:40:36.224Z,19.42
2022-11-10T18:43:07.460Z,19.40
2022-11-10T18:45:37.423Z,19.31
2022-11-10T18:48:05.123Z,19.24
2022-11-10T18:50:32.261Z,19.16
2022-11-10T18:52:59.785Z,19.09
2022-11-10T18:55:26.963Z,19.06
2022-11-10T18:57:54.063Z,19.02
2022-11-10T19:00:21.402Z,18.96
2022-11-10T19:02:49.928Z,18.96
2022-11-10T19:05:17.156Z,18.88
2022-11-10T19:07:44.265Z,18.86
2022-11-10T19:10:11.884Z,18.86
2022-11-10T19:12:39.161Z,18.77
2022-11-10T19:15:07.182Z,18.74
2022-11-10T19:17:34.343Z,18.68
2022-11-10T19:20:02.965Z,18.68
2022-11-10T19:22:30.402Z,18.76
2022-11-10T19:25:08.056Z,18.74
2022-11-10T19:27:36.023Z,18.65
2022-11-10T19:30:03.454Z,18.60
2022-11-10T19:32:30.622Z,18.57
2022-11-10T19:34:57.914Z,18.57
2022-11-10T19:37:29.776Z,18.61
2022-11-10T19:40:00.782Z,18.68
2022-11-10T19:42:27.924Z,18.65
2022-11-10T19:44:55.022Z,18.59
2022-11-10T19:47:22.664Z,18.59
2022-11-10T19:49:49.842Z,18.54
2022-11-10T19:52:17.082Z,18.50
2022-11-10T19:54:45.681Z,18.53
2022-11-10T19:57:12.803Z,18.51
2022-11-10T19:59:39.862Z,18.55
2022-11-10T20:02:07.069Z,18.50
2022-11-10T20:04:34.145Z,18.44
2022-11-10T20:07:01.316Z,18.35
2022-11-10T20:09:28.363Z,18.30
2022-11-10T20:11:56.922Z,18.24
2022-11-10T20:14:23.983Z,18.26
2022-11-10T20:16:51.144Z,18.20
2022-11-10T20:19:18.262Z,18.20
2022-11-10T20:21:45.362Z,18.20
2022-11-10T20:24:12.661Z,18.20
2022-11-10T20:26:39.781Z,18.17
2022-11-10T20:29:08.601Z,18.18
2022-11-10T20:31:35.642Z,18.18
2022-11-10T20:34:02.707Z,18.15
2022-11-10T20:36:31.282Z,20.19
2022-11-10T20:38:59.305Z,21.26
2022-11-10T20:41:28.885Z,21.86
2022-11-10T20:43:56.001Z,22.35
2022-11-10T20:46:52.761Z,22.70
2022-11-10T20:49:11.774Z,22.06
2022-11-10T20:51:38.821Z,21.16
2022-11-10T20:54:05.943Z,20.51
2022-11-10T20:56:33.001Z,20.07
2022-11-10T20:59:00.065Z,19.70
2022-11-10T21:01:28.643Z,19.32
2022-11-10T21:03:55.843Z,19.09
2022-11-10T21:06:22.960Z,18.85
2022-11-10T21:08:50.120Z,18.67
2022-11-10T21:11:17.919Z,18.47
2022-11-10T21:13:44.961Z,18.40
2022-11-10T21:16:12.042Z,18.34
2022-11-10T21:18:40.547Z,18.22
2022-11-10T21:21:20.601Z,18.12
2022-11-10T21:23:47.682Z,18.03
2022-11-10T21:26:14.762Z,17.96
2022-11-10T21:28:41.821Z,17.94
2022-11-10T21:31:08.862Z,17.88
2022-11-10T21:33:36.280Z,17.87
2022-11-10T21:36:08.240Z,17.81
2022-11-10T21:38:35.602Z,17.79
2022-11-10T21:41:05.020Z,17.77
2022-11-10T21:43:32.101Z,17.75
2022-11-10T21:46:00.380Z,17.76
2022-11-10T21:48:27.723Z,17.80
2022-11-10T21:50:59.841Z,17.81
2022-11-10T21:53:28.460Z,17.84
2022-11-10T21:55:58.121Z,17.87
2022-11-10T21:58:25.180Z,17.93
2022-11-10T22:00:52.401Z,18.01
2022-11-10T22:03:19.402Z,18.02
2022-11-10T22:05:46.463Z,18.08
2022-11-10T22:08:14.789Z,18.13
2022-11-10T22:10:44.761Z,18.21
2022-11-10T22:13:15.438Z,18.29
2022-11-10T22:15:42.620Z,18.33
2022-11-10T22:18:14.754Z,18.36
2022-11-10T22:20:41.959Z,18.35
2022-11-10T22:23:09.119Z,18.32
2022-11-10T22:25:36.220Z,18.32
2022-11-10T22:28:05.819Z,18.32
2022-11-10T22:30:32.939Z,18.33
2022-11-10T22:32:59.940Z,18.31
2022-11-10T22:35:27.048Z,18.33
2022-11-10T22:37:54.359Z,18.34
2022-11-10T22:40:21.401Z,18.34
2022-11-10T22:42:48.499Z,18.32
2022-11-10T22:45:16.980Z,18.34
2022-11-10T22:47:44.040Z,18.32
2022-11-10T22:50:11.119Z,18.32
2022-11-10T22:52:38.240Z,18.32
2022-11-10T22:55:06.109Z,18.32
2022-11-10T22:57:33.179Z,18.34
2022-11-10T23:00:00.243Z,18.33
2022-11-10T23:02:28.719Z,18.32
2022-11-10T23:04:55.758Z,18.36
2022-11-10T23:07:22.819Z,18.38
2022-11-10T23:09:49.924Z,18.38
2022-11-10T23:12:17.119Z,18.40
2022-11-10T23:14:44.397Z,18.42
2022-11-10T23:17:11.521Z,18.42
2022-11-10T23:19:39.979Z,18.46
2022-11-10T23:22:07.019Z,18.46
2022-11-10T23:24:34.019Z,18.45
2022-11-10T23:27:01.080Z,18.50
2022-11-10T23:29:28.118Z,18.53
2022-11-10T23:31:55.219Z,18.53
2022-11-10T23:34:22.299Z,18.54
2022-11-10T23:36:50.799Z,18.50
2022-11-10T23:39:17.878Z,18.49
2022-11-10T23:41:44.960Z,18.48
2022-11-10T23:44:12.020Z,18.42
2022-11-10T23:46:39.059Z,18.40
2022-11-10T23:49:06.098Z,18.39
2022-11-10T23:51:33.178Z,18.39
2022-11-10T23:54:01.779Z,18.39
2022-11-10T23:56:28.801Z,18.36
2022-11-10T23:58:55.880Z,18.36
